Time;durP1;ratioP1;P1;durP2;ratioP2;P2;SDS_P1;SDS_P2;PMS_P1;PMS_P2;Temp;Humidity;BMP_temperature;BMP_pressure;BME280_temperature;BME280_humidity;BME280_pressure;Samples;Min_cycle;Max_cycle;Signal;HPM_P1;HPM_P2
2021/01/28 00:01:06;;;;;;;19.57;10.93;;;1.90;99.90;;;;;;5010806;28;20228;-72
2021/01/28 00:03:33;;;;;;;16.93;10.37;;;2.00;99.90;;;;;;5010606;28;20283;-73
2021/01/28 00:06:01;;;;;;;16.90;9.83;;;2.00;99.90;;;;;;5010943;28;20604;-72
2021/01/28 00:08:28;;;;;;;20.90;9.20;;;2.00;99.90;;;;;;5009635;28;20686;-73
2021/01/28 00:10:54;;;;;;;16.80;9.57;;;2.00;99.90;;;;;;5011006;28;20249;-72
2021/01/28 00:13:21;;;;;;;15.73;9.27;;;2.00;99.90;;;;;;5008214;28;20203;-72
2021/01/28 00:15:47;;;;;;;16.93;9.20;;;2.10;99.90;;;;;;5011964;28;20207;-72
2021/01/28 00:18:15;;;;;;;17.17;8.10;;;2.10;99.90;;;;;;5013104;28;20239;-72
2021/01/28 00:20:45;;;;;;;19.10;8.50;;;2.10;99.90;;;;;;5010808;28;20241;-73
2021/01/28 00:23:12;;;;;;;14.93;8.20;;;2.10;99.90;;;;;;5009889;28;20211;-73
2021/01/28 00:25:40;;;;;;;15.73;8.30;;;2.10;99.90;;;;;;5009807;28;20199;-74
2021/01/28 00:28:09;;;;;;;15.77;8.77;;;2.10;99.90;;;;;;5013352;28;20208;-74
2021/01/28 00:30:37;;;;;;;13.70;8.00;;;2.10;99.90;;;;;;5013221;28;20242;-73
2021/01/28 00:33:05;;;;;;;14.47;8.53;;;2.10;99.90;;;;;;5012347;28;20660;-73
2021/01/28 00:35:34;;;;;;;19.50;9.47;;;2.10;99.90;;;;;;5012938;28;20211;-75
2021/01/28 00:38:03;;;;;;;13.70;8.67;;;2.10;99.90;;;;;;5013337;28;20223;-73
2021/01/28 00:40:30;;;;;;;16.67;9.20;;;2.10;99.90;;;;;;5013210;28;20223;-73
2021/01/28 00:42:57;;;;;;;19.13;9.77;;;2.10;99.90;;;;;;5010786;28;20267;-74
2021/01/28 00:45:26;;;;;;;19.30;9.67;;;2.10;99.90;;;;;;5009693;28;20215;-75
2021/01/28 00:47:52;;;;;;;19.70;10.70;;;2.10;99.90;;;;;;5007253;28;20412;-75
2021/01/28 00:50:21;;;;;;;16.83;10.17;;;2.00;99.90;;;;;;5011514;28;20206;-75
2021/01/28 00:52:47;;;;;;;19.60;10.40;;;2.00;99.90;;;;;;5008004;28;20207;-75
2021/01/28 00:55:16;;;;;;;20.37;10.63;;;2.00;99.90;;;;;;5010159;28;20199;-75
2021/01/28 00:57:45;;;;;;;20.50;11.07;;;2.00;99.90;;;;;;5012971;28;20684;-75
2021/01/28 01:00:17;;;;;;;19.23;10.67;;;2.00;99.90;;;;;;5010944;28;20226;-74
2021/01/28 01:02:45;;;;;;;19.53;9.77;;;2.00;99.90;;;;;;5011356;28;20203;-75
2021/01/28 01:05:15;;;;;;;20.20;11.40;;;2.00;99.90;;;;;;5013689;28;20199;-74
2021/01/28 01:07:42;;;;;;;20.67;10.80;;;2.00;99.90;;;;;;5012337;28;20216;-74
2021/01/28 01:10:26;;;;;;;19.87;10.83;;;2.00;99.90;;;;;;5009802;28;20540;-74
2021/01/28 01:12:54;;;;;;;20.70;10.47;;;2.00;99.90;;;;;;5010408;28;20533;-74
2021/01/28 01:15:21;;;;;;;18.73;9.73;;;2.00;99.90;;;;;;5017244;28;20203;-75
2021/01/28 01:17:48;;;;;;;20.37;11.30;;;2.00;99.90;;;;;;5014962;28;20603;-75
2021/01/28 01:20:17;;;;;;;21.80;10.17;;;2.00;99.90;;;;;;5015991;28;20233;-75
2021/01/28 01:22:43;;;;;;;16.63;10.43;;;2.00;99.90;;;;;;5014471;28;20212;-74
2021/01/28 01:25:11;;;;;;;18.63;10.30;;;2.00;99.90;;;;;;5013709;28;20731;-74
2021/01/28 01:27:37;;;;;;;20.07;10.83;;;2.00;99.90;;;;;;5016004;28;20338;-75
2021/01/28 01:30:07;;;;;;;17.83;9.80;;;1.90;99.90;;;;;;5013441;28;20246;-74
2021/01/28 01:32:34;;;;;;;21.43;10.77;;;1.90;99.90;;;;;;5011812;28;20207;-74
2021/01/28 01:35:00;;;;;;;19.57;10.80;;;2.00;99.90;;;;;;5013935;28;20298;-73
2021/01/28 01:37:27;;;;;;;19.77;11.20;;;2.00;99.90;;;;;;5014400;28;20207;-73
2021/01/28 01:39:53;;;;;;;20.90;12.47;;;1.90;99.90;;;;;;5013624;28;20573;-74
2021/01/28 01:42:20;;;;;;;20.60;11.70;;;1.90;99.90;;;;;;5014177;28;20670;-74
2021/01/28 01:44:47;;;;;;;21.17;11.50;;;1.90;99.90;;;;;;5015042;28;20199;-73
2021/01/28 01:47:37;;;;;;;19.70;11.77;;;2.00;99.90;;;;;;5014930;28;20725;-72
2021/01/28 01:50:07;;;;;;;19.13;11.50;;;2.00;99.90;;;;;;5012632;28;20208;-75
2021/01/28 01:52:35;;;;;;;22.07;12.17;;;2.00;99.90;;;;;;5011950;28;20203;-76
2021/01/28 01:55:04;;;;;;;23.77;11.30;;;1.90;99.90;;;;;;5017496;28;20271;-75
2021/01/28 01:57:33;;;;;;;22.93;12.10;;;2.10;99.90;;;;;;5013211;28;20213;-76
2021/01/28 02:00:08;;;;;;;24.27;11.90;;;2.10;99.90;;;;;;5016477;28;20227;-76
2021/01/28 02:02:40;;;;;;;19.57;11.20;;;2.00;99.90;;;;;;5019180;28;20322;-77
2021/01/28 02:05:14;;;;;;;22.83;12.27;;;2.00;99.90;;;;;;5014567;28;20295;-76
2021/01/28 02:07:42;;;;;;;18.27;11.33;;;2.00;99.90;;;;;;5016593;28;20270;-76
2021/01/28 02:10:13;;;;;;;22.23;11.40;;;2.00;99.90;;;;;;5019283;28;20231;-77
2021/01/28 02:12:40;;;;;;;22.00;11.27;;;2.00;99.90;;;;;;5016059;28;20686;-77
2021/01/28 02:15:08;;;;;;;22.73;11.53;;;2.00;99.90;;;;;;5018799;28;20604;-77
2021/01/28 02:17:37;;;;;;;20.93;11.93;;;1.90;99.90;;;;;;5015257;28;20323;-75
2021/01/28 02:20:38;;;;;;;20.53;11.50;;;1.90;99.90;;;;;;5016372;28;20251;-76
2021/01/28 02:23:15;;;;;;;22.23;11.43;;;1.90;99.90;;;;;;5017027;28;20633;-76
2021/01/28 02:25:44;;;;;;;25.00;12.83;;;1.90;99.90;;;;;;5015960;28;20209;-76
2021/01/28 02:28:17;;;;;;;20.93;11.53;;;1.90;99.90;;;;;;5011665;28;20271;-76
2021/01/28 02:30:46;;;;;;;24.77;12.30;;;1.90;99.90;;;;;;5010920;28;20643;-75
2021/01/28 02:33:33;;;;;;;22.23;11.20;;;1.90;99.90;;;;;;5014422;28;20211;-76
2021/01/28 02:36:00;;;;;;;23.37;11.37;;;1.90;99.90;;;;;;5015698;28;20227;-76
2021/01/28 02:38:28;;;;;;;19.93;10.90;;;1.90;99.90;;;;;;5016129;28;20393;-75
2021/01/28 02:40:55;;;;;;;19.83;10.80;;;1.90;99.90;;;;;;5015560;28;20299;-74
2021/01/28 02:43:21;;;;;;;19.40;10.63;;;1.90;99.90;;;;;;5014803;28;20578;-74
2021/01/28 02:45:48;;;;;;;22.20;10.90;;;1.80;99.90;;;;;;5015289;28;20293;-74
2021/01/28 02:48:15;;;;;;;20.67;11.20;;;1.80;99.90;;;;;;5015616;28;20215;-74
2021/01/28 02:50:41;;;;;;;24.03;10.67;;;1.70;99.90;;;;;;5016076;28;20211;-75
2021/01/28 02:53:09;;;;;;;20.20;10.33;;;1.80;99.90;;;;;;5013533;28;20322;-75
2021/01/28 02:55:36;;;;;;;23.57;11.23;;;1.80;99.90;;;;;;5016476;28;20640;-75
2021/01/28 02:58:03;;;;;;;17.07;9.67;;;1.80;99.90;;;;;;5013369;28;20782;-74
2021/01/28 03:00:32;;;;;;;20.70;11.03;;;1.90;99.90;;;;;;5011768;28;20275;-74
2021/01/28 03:03:00;;;;;;;20.87;11.07;;;1.90;99.90;;;;;;5014058;28;20570;-74
2021/01/28 03:05:26;;;;;;;16.97;9.53;;;1.90;99.90;;;;;;5015413;28;20561;-74
2021/01/28 03:07:52;;;;;;;19.13;9.77;;;1.90;99.90;;;;;;5015156;28;20716;-75
2021/01/28 03:10:22;;;;;;;19.13;9.97;;;1.90;99.90;;;;;;5015405;28;20271;-76
2021/01/28 03:12:49;;;;;;;19.37;10.50;;;1.90;99.90;;;;;;5013626;28;20301;-75
2021/01/28 03:15:18;;;;;;;20.87;10.90;;;1.80;99.90;;;;;;5014814;28;20330;-74
2021/01/28 03:17:45;;;;;;;20.63;10.10;;;1.80;99.90;;;;;;5015163;28;20265;-74
2021/01/28 03:20:13;;;;;;;18.70;10.27;;;1.80;99.90;;;;;;5016304;28;20233;-75
2021/01/28 03:22:40;;;;;;;21.27;10.37;;;1.90;99.90;;;;;;5014744;28;20565;-75
2021/01/28 03:25:10;;;;;;;22.37;11.17;;;1.80;99.90;;;;;;5015704;28;20217;-75
2021/01/28 03:27:37;;;;;;;21.37;10.10;;;1.80;99.90;;;;;;5016297;28;20203;-75
2021/01/28 03:30:07;;;;;;;21.47;11.87;;;1.80;99.90;;;;;;5015064;28;20306;-75
2021/01/28 03:32:33;;;;;;;18.00;9.97;;;1.80;99.90;;;;;;5013342;28;20207;-75
2021/01/28 03:35:00;;;;;;;23.57;11.07;;;1.90;99.90;;;;;;5011218;28;20253;-75
2021/01/28 03:37:26;;;;;;;22.67;11.13;;;1.80;99.90;;;;;;5013262;28;20730;-76
2021/01/28 03:39:53;;;;;;;23.53;10.57;;;1.90;99.90;;;;;;5015804;28;20199;-75
2021/01/28 03:42:19;;;;;;;19.80;11.10;;;1.90;99.90;;;;;;5013852;28;20318;-75
2021/01/28 03:44:47;;;;;;;19.93;10.60;;;1.90;99.90;;;;;;5015437;28;20226;-75
2021/01/28 03:47:13;;;;;;;20.33;11.20;;;1.80;99.90;;;;;;5016092;28;20596;-76
2021/01/28 03:49:39;;;;;;;21.40;12.50;;;1.90;99.90;;;;;;5016635;28;20222;-75
2021/01/28 03:52:06;;;;;;;22.47;11.10;;;1.90;99.90;;;;;;5012982;28;20207;-75
2021/01/28 03:54:32;;;;;;;28.67;13.03;;;1.90;99.90;;;;;;5014129;28;20218;-75
2021/01/28 03:56:58;;;;;;;21.40;13.37;;;1.90;99.90;;;;;;5013174;28;20203;-75
2021/01/28 03:59:25;;;;;;;25.63;13.07;;;1.90;99.90;;;;;;5016613;28;20207;-75
2021/01/28 04:01:52;;;;;;;22.50;13.10;;;1.90;99.90;;;;;;5014458;28;20231;-75
2021/01/28 04:04:18;;;;;;;20.43;11.70;;;1.90;99.90;;;;;;5015411;28;20297;-75
2021/01/28 04:06:45;;;;;;;24.53;12.43;;;1.90;99.90;;;;;;5011787;28;20249;-75
2021/01/28 04:09:12;;;;;;;23.93;12.53;;;1.90;99.90;;;;;;5016292;28;20215;-76
2021/01/28 04:11:38;;;;;;;20.83;11.30;;;1.80;99.90;;;;;;5015097;28;20652;-74
2021/01/28 04:14:05;;;;;;;22.83;11.20;;;1.80;99.90;;;;;;5011462;28;20342;-75
2021/01/28 04:16:31;;;;;;;22.33;11.07;;;1.80;99.90;;;;;;5011114;28;20250;-74
2021/01/28 04:18:58;;;;;;;20.33;11.40;;;1.90;99.90;;;;;;5010252;28;20308;-75
2021/01/28 04:21:24;;;;;;;21.27;11.33;;;1.80;99.90;;;;;;5013413;28;21306;-74
2021/01/28 04:23:51;;;;;;;22.90;10.77;;;1.70;99.90;;;;;;5006687;28;20277;-75
2021/01/28 04:26:17;;;;;;;20.60;10.43;;;1.70;99.90;;;;;;5014536;28;20741;-77
2021/01/28 04:28:44;;;;;;;19.53;10.53;;;1.80;99.90;;;;;;5016293;28;20265;-76
2021/01/28 04:31:10;;;;;;;18.07;9.83;;;1.70;99.90;;;;;;5012406;28;20195;-76
2021/01/28 04:33:37;;;;;;;17.27;10.30;;;1.70;99.90;;;;;;5015165;28;20294;-75
2021/01/28 04:36:05;;;;;;;21.93;10.67;;;1.70;99.90;;;;;;5013591;28;20234;-73
2021/01/28 04:38:31;;;;;;;22.23;10.57;;;1.70;99.90;;;;;;5008186;28;20210;-74
2021/01/28 04:41:06;;;;;;;17.30;9.70;;;1.70;99.90;;;;;;5013769;28;20656;-73
2021/01/28 04:43:33;;;;;;;20.70;10.27;;;1.70;99.90;;;;;;5011761;28;20209;-73
2021/01/28 04:46:03;;;;;;;18.57;8.63;;;1.80;99.90;;;;;;5008188;28;20237;-73
2021/01/28 04:48:32;;;;;;;16.47;9.10;;;1.70;99.90;;;;;;5016234;28;20536;-75
2021/01/28 04:51:00;;;;;;;17.50;9.73;;;1.70;99.90;;;;;;5018628;28;20234;-75
2021/01/28 04:53:34;;;;;;;15.80;9.07;;;1.70;99.90;;;;;;5018130;28;20226;-74
2021/01/28 04:56:04;;;;;;;20.00;9.90;;;1.70;99.90;;;;;;5016895;28;20262;-72
2021/01/28 04:58:31;;;;;;;17.40;8.90;;;1.70;99.90;;;;;;5016528;28;20203;-73
2021/01/28 05:00:57;;;;;;;15.37;8.90;;;1.60;99.90;;;;;;5015468;28;20219;-73
2021/01/28 05:03:27;;;;;;;16.23;9.23;;;1.70;99.90;;;;;;5017172;28;20307;-72
2021/01/28 05:05:57;;;;;;;17.93;9.33;;;1.70;99.90;;;;;;5010730;28;20758;-73
2021/01/28 05:08:23;;;;;;;19.10;8.87;;;1.60;99.90;;;;;;5016025;28;20226;-74
2021/01/28 05:10:53;;;;;;;15.37;8.27;;;1.60;99.90;;;;;;5017365;28;20199;-73
2021/01/28 05:13:32;;;;;;;15.83;7.63;;;1.60;99.90;;;;;;5015391;28;20233;-74
2021/01/28 05:16:17;;;;;;;15.27;8.10;;;1.60;99.90;;;;;;5013067;28;20574;-74
2021/01/28 05:18:43;;;;;;;13.70;7.60;;;1.50;99.90;;;;;;5015479;28;20243;-73
2021/01/28 05:21:18;;;;;;;13.07;7.33;;;1.60;99.90;;;;;;5017261;28;20310;-73
2021/01/28 05:23:45;;;;;;;16.93;8.00;;;1.60;99.90;;;;;;5011698;28;20621;-73
2021/01/28 05:26:32;;;;;;;11.87;7.80;;;1.50;99.90;;;;;;5016601;28;20277;-73
2021/01/28 05:29:22;;;;;;;11.67;7.83;;;1.50;99.90;;;;;;5017385;28;20644;-73
2021/01/28 05:31:51;;;;;;;12.57;7.07;;;1.50;99.90;;;;;;5014458;28;20700;-73
2021/01/28 05:34:24;;;;;;;13.47;6.93;;;1.50;99.90;;;;;;5016410;28;20207;-75
2021/01/28 05:36:56;;;;;;;12.80;6.73;;;1.50;99.90;;;;;;5015507;28;20628;-74
2021/01/28 05:39:26;;;;;;;9.97;5.97;;;1.40;99.90;;;;;;5015715;28;20207;-73
2021/01/28 05:42:06;;;;;;;10.90;6.37;;;1.40;99.90;;;;;;5012323;28;20637;-72
2021/01/28 05:44:34;;;;;;;10.30;6.00;;;1.40;99.90;;;;;;5013654;28;20646;-75
2021/01/28 05:47:04;;;;;;;9.77;5.67;;;1.40;99.90;;;;;;5016332;28;20242;-73
2021/01/28 05:49:31;;;;;;;8.73;5.33;;;1.40;99.90;;;;;;5013522;28;20603;-74
2021/01/28 05:52:13;;;;;;;13.40;5.80;;;1.40;99.90;;;;;;5017395;28;20560;-74
2021/01/28 05:54:41;;;;;;;10.63;5.73;;;1.40;99.90;;;;;;5013818;28;20199;-74
2021/01/28 05:57:10;;;;;;;11.77;5.57;;;1.40;99.90;;;;;;5016676;28;20302;-74
2021/01/28 05:59:45;;;;;;;8.27;5.00;;;1.40;99.90;;;;;;5016329;28;20282;-75
2021/01/28 06:02:37;;;;;;;8.17;4.33;;;1.40;99.90;;;;;;5013796;28;20229;-74
2021/01/28 06:05:23;;;;;;;8.63;4.80;;;1.40;99.90;;;;;;5010678;28;20291;-76
2021/01/28 06:08:14;;;;;;;12.80;5.23;;;1.40;99.90;;;;;;5016823;28;20631;-75
2021/01/28 06:10:59;;;;;;;7.23;4.90;;;1.50;99.90;;;;;;5016007;28;20207;-75
2021/01/28 06:13:54;;;;;;;11.83;5.10;;;1.50;99.90;;;;;;5012381;28;20207;-75
2021/01/28 06:16:25;;;;;;;7.37;5.13;;;1.50;99.90;;;;;;5014066;28;20247;-75
2021/01/28 06:19:32;;;;;;;10.17;5.30;;;1.50;99.90;;;;;;5014212;28;20652;-74
2021/01/28 06:22:00;;;;;;;7.73;5.00;;;1.50;99.90;;;;;;4996861;28;20231;-74
2021/01/28 06:24:52;;;;;;;10.23;5.13;;;1.50;99.90;;;;;;5015914;28;20577;-74
2021/01/28 06:27:58;;;;;;;9.37;5.20;;;1.60;99.90;;;;;;5016199;28;20203;-74
2021/01/28 06:30:36;;;;;;;9.50;4.23;;;1.50;99.90;;;;;;5004291;28;20258;-74
2021/01/28 06:33:29;;;;;;;8.10;4.43;;;1.50;99.90;;;;;;5015468;28;20210;-74
2021/01/28 06:36:17;;;;;;;7.47;4.50;;;1.50;99.90;;;;;;5013142;28;20302;-74
2021/01/28 06:39:02;;;;;;;7.67;4.77;;;1.50;99.90;;;;;;5016973;28;20676;-74
2021/01/28 06:41:31;;;;;;;7.07;4.27;;;1.50;99.90;;;;;;4998601;28;20319;-75
2021/01/28 06:44:03;;;;;;;6.60;4.50;;;1.40;99.90;;;;;;5015079;28;20215;-76
2021/01/28 06:46:42;;;;;;;7.27;4.50;;;1.40;99.90;;;;;;5004756;28;20203;-75
2021/01/28 06:49:17;;;;;;;8.90;5.07;;;1.30;99.90;;;;;;5015455;28;20247;-75
2021/01/28 06:51:55;;;;;;;8.00;4.63;;;1.30;99.90;;;;;;5015061;28;20223;-75
2021/01/28 06:54:28;;;;;;;5.63;4.40;;;1.30;99.90;;;;;;5001197;28;20203;-75
2021/01/28 06:57:03;;;;;;;8.73;5.07;;;1.30;99.90;;;;;;5017491;28;20725;-77
2021/01/28 06:59:45;;;;;;;8.73;4.60;;;1.30;99.90;;;;;;5016483;28;20289;-74
2021/01/28 07:02:30;;;;;;;7.30;4.63;;;1.30;99.90;;;;;;4997186;28;20306;-75
2021/01/28 07:05:30;;;;;;;8.47;5.33;;;1.40;99.90;;;;;;5014556;28;20211;-76
2021/01/28 07:08:10;;;;;;;10.37;5.00;;;1.40;99.90;;;;;;5010765;28;20199;-76
2021/01/28 07:10:39;;;;;;;9.60;5.40;;;1.60;99.90;;;;;;5016121;28;20203;-77
2021/01/28 07:13:09;;;;;;;9.60;5.37;;;1.70;99.90;;;;;;5014294;28;20211;-76
2021/01/28 07:15:36;;;;;;;7.57;5.10;;;1.70;99.90;;;;;;5002252;28;20293;-75
2021/01/28 07:18:10;;;;;;;11.60;4.73;;;1.80;99.90;;;;;;5014957;28;20784;-73
2021/01/28 07:20:39;;;;;;;9.43;5.20;;;1.90;99.90;;;;;;5012030;28;20255;-76
2021/01/28 07:23:25;;;;;;;9.40;5.07;;;2.00;99.90;;;;;;4999722;28;20259;-74
2021/01/28 07:25:53;;;;;;;9.17;4.90;;;2.10;99.90;;;;;;5002731;28;20215;-74
2021/01/28 07:28:28;;;;;;;9.53;5.07;;;2.10;99.90;;;;;;5015445;28;20231;-74
2021/01/28 07:31:21;;;;;;;7.90;4.70;;;2.10;99.90;;;;;;5009317;28;20765;-73
2021/01/28 07:34:05;;;;;;;9.07;4.97;;;2.10;99.90;;;;;;5012169;28;20211;-77
2021/01/28 07:36:47;;;;;;;5.93;4.43;;;2.20;99.90;;;;;;5006174;28;20203;-74
2021/01/28 07:39:34;;;;;;;6.27;3.97;;;2.20;99.90;;;;;;5012103;28;20207;-75
2021/01/28 07:42:02;;;;;;;6.97;4.23;;;2.20;99.90;;;;;;5008831;28;20228;-74
2021/01/28 07:44:44;;;;;;;6.77;4.43;;;2.30;99.90;;;;;;5012522;28;20238;-73
2021/01/28 07:47:47;;;;;;;7.07;3.60;;;2.30;99.90;;;;;;5011813;28;20582;-72
2021/01/28 07:50:34;;;;;;;7.33;4.23;;;2.40;99.90;;;;;;5012834;28;20203;-72
2021/01/28 07:53:29;;;;;;;7.20;4.90;;;2.40;99.90;;;;;;5013305;28;20223;-73
2021/01/28 07:55:56;;;;;;;6.83;4.10;;;2.50;99.90;;;;;;5011309;28;20607;-75
2021/01/28 07:58:27;;;;;;;7.17;3.73;;;2.60;99.90;;;;;;5013021;28;20558;-73
2021/01/28 08:00:54;;;;;;;7.57;4.47;;;2.80;99.90;;;;;;5006432;28;20215;-75
2021/01/28 08:03:32;;;;;;;8.90;4.47;;;3.00;99.40;;;;;;5015795;28;20256;-73
2021/01/28 08:06:06;;;;;;;6.93;4.43;;;3.20;98.70;;;;;;5014944;28;20211;-74
2021/01/28 08:08:33;;;;;;;8.40;3.90;;;3.30;97.70;;;;;;5010749;28;20198;-72
2021/01/28 08:11:13;;;;;;;6.90;4.83;;;3.40;96.40;;;;;;5005296;28;20242;-71
2021/01/28 08:13:41;;;;;;;7.23;4.93;;;3.40;96.30;;;;;;5008757;28;20204;-74
2021/01/28 08:16:17;;;;;;;9.63;4.70;;;3.50;96.20;;;;;;5005283;28;20732;-74
2021/01/28 08:18:44;;;;;;;7.67;4.83;;;3.60;95.70;;;;;;5015217;28;20849;-74
2021/01/28 08:21:13;;;;;;;6.83;4.67;;;3.70;95.20;;;;;;5008886;28;20314;-75
2021/01/28 08:23:42;;;;;;;7.30;4.87;;;3.80;94.90;;;;;;5010279;28;20214;-75
2021/01/28 08:26:12;;;;;;;9.43;5.17;;;3.90;94.10;;;;;;5012724;28;20207;-74
2021/01/28 08:28:40;;;;;;;8.87;5.00;;;3.90;93.70;;;;;;5013082;28;20211;-75
2021/01/28 08:31:16;;;;;;;8.53;5.13;;;4.00;93.40;;;;;;5012528;28;20250;-73
2021/01/28 08:33:46;;;;;;;6.03;4.23;;;4.10;92.80;;;;;;5008152;28;20206;-68
2021/01/28 08:36:26;;;;;;;7.27;5.20;;;4.20;92.40;;;;;;5013045;28;20207;-71
2021/01/28 08:39:07;;;;;;;11.27;5.53;;;4.50;92.10;;;;;;5006259;28;20225;-73
2021/01/28 08:41:33;;;;;;;11.57;5.60;;;4.80;91.40;;;;;;5000781;28;20211;-71
2021/01/28 08:44:01;;;;;;;8.53;5.30;;;5.20;90.60;;;;;;5009099;28;20566;-72
2021/01/28 08:46:28;;;;;;;8.53;5.03;;;5.60;88.30;;;;;;5003621;28;20314;-72
2021/01/28 08:49:04;;;;;;;8.70;4.90;;;5.90;85.90;;;;;;5003169;28;20648;-69
2021/01/28 08:51:31;;;;;;;9.97;5.30;;;6.10;82.00;;;;;;5011236;28;20198;-73
2021/01/28 08:54:01;;;;;;;8.27;5.07;;;6.30;80.60;;;;;;5012736;28;20210;-72
2021/01/28 08:56:32;;;;;;;14.33;6.17;;;6.20;77.20;;;;;;5013357;28;20757;-72
2021/01/28 08:59:02;;;;;;;6.87;4.70;;;6.10;77.00;;;;;;5013065;28;20211;-74
2021/01/28 09:02:05;;;;;;;6.50;4.97;;;5.90;75.50;;;;;;5004535;28;20247;-71
2021/01/28 09:04:35;;;;;;;8.40;5.13;;;5.80;76.10;;;;;;5008119;28;20578;-72
2021/01/28 09:07:03;;;;;;;9.40;5.13;;;5.90;75.70;;;;;;5012698;28;20203;-73
2021/01/28 09:09:32;;;;;;;9.87;5.23;;;5.90;74.60;;;;;;5013256;28;20210;-74
2021/01/28 09:12:21;;;;;;;8.37;5.67;;;6.10;75.10;;;;;;5010195;28;20210;-74
2021/01/28 09:14:48;;;;;;;8.70;5.20;;;6.90;87.80;;;;;;5006977;28;20210;-73
2021/01/28 09:17:23;;;;;;;11.53;5.50;;;7.80;73.70;;;;;;5013091;28;20307;-72
2021/01/28 09:19:55;;;;;;;10.27;5.47;;;8.20;68.80;;;;;;5013484;28;20330;-71
2021/01/28 09:22:32;;;;;;;6.00;4.57;;;8.30;64.80;;;;;;5010009;28;20660;-70
2021/01/28 09:24:59;;;;;;;11.53;5.43;;;8.20;62.80;;;;;;5005432;28;20204;-72
2021/01/28 09:27:30;;;;;;;11.20;5.67;;;8.10;62.00;;;;;;5012090;28;20211;-70
2021/01/28 09:30:25;;;;;;;9.70;5.63;;;7.80;60.80;;;;;;5006284;28;20244;-74
2021/01/28 09:32:52;;;;;;;9.27;6.20;;;7.40;61.00;;;;;;5002035;28;20719;-74
2021/01/28 09:35:22;;;;;;;9.37;5.93;;;7.00;62.40;;;;;;5014752;28;20297;-73
2021/01/28 09:38:06;;;;;;;10.70;5.83;;;6.70;63.60;;;;;;5009240;28;20242;-72
2021/01/28 09:40:36;;;;;;;9.80;5.97;;;6.60;64.70;;;;;;5015041;28;20322;-70
2021/01/28 09:43:17;;;;;;;9.83;5.03;;;6.60;65.00;;;;;;5014624;28;20238;-71
2021/01/28 09:46:02;;;;;;;8.43;5.23;;;6.50;64.70;;;;;;5015533;28;20291;-71
2021/01/28 09:48:28;;;;;;;9.80;5.17;;;6.80;65.80;;;;;;5007840;28;20214;-72
2021/01/28 09:50:54;;;;;;;9.20;5.43;;;7.10;63.40;;;;;;5013429;28;20298;-72
2021/01/28 09:53:22;;;;;;;7.10;4.73;;;7.80;73.70;;;;;;5013021;28;20212;-72
2021/01/28 09:55:51;;;;;;;9.20;5.27;;;8.80;62.90;;;;;;5013520;28;20306;-74
2021/01/28 09:58:17;;;;;;;10.27;5.70;;;9.30;59.30;;;;;;5006104;28;20649;-73
2021/01/28 10:00:45;;;;;;;11.93;5.77;;;9.60;57.50;;;;;;5012356;28;20282;-75
2021/01/28 10:03:15;;;;;;;8.40;5.70;;;9.80;55.80;;;;;;5010126;28;20281;-76
2021/01/28 10:05:41;;;;;;;8.20;5.47;;;9.60;54.10;;;;;;5015669;28;20578;-73
2021/01/28 10:08:08;;;;;;;9.80;6.07;;;9.40;53.60;;;;;;5015059;28;20357;-76
2021/01/28 10:10:38;;;;;;;11.50;6.37;;;9.00;53.50;;;;;;5014785;28;20302;-75
2021/01/28 10:13:07;;;;;;;10.27;6.07;;;8.50;54.60;;;;;;5002632;28;20235;-75
2021/01/28 10:15:33;;;;;;;8.47;6.03;;;8.30;55.50;;;;;;5008330;28;20258;-72
2021/01/28 10:18:00;;;;;;;12.60;6.17;;;8.00;55.60;;;;;;5006153;28;20646;-74
2021/01/28 10:20:26;;;;;;;8.07;5.70;;;7.70;56.00;;;;;;5004078;28;20239;-74
2021/01/28 10:22:55;;;;;;;10.37;5.83;;;7.40;56.40;;;;;;5015397;28;20643;-75
2021/01/28 10:25:22;;;;;;;12.00;6.27;;;7.10;56.80;;;;;;5011730;28;20227;-73
2021/01/28 10:27:50;;;;;;;10.40;5.87;;;6.70;57.30;;;;;;5007610;28;20618;-74
2021/01/28 10:30:18;;;;;;;10.07;5.50;;;6.50;58.20;;;;;;5013766;28;20310;-74
2021/01/28 10:32:45;;;;;;;9.33;5.77;;;6.20;58.90;;;;;;5014708;28;20656;-74
2021/01/28 10:35:14;;;;;;;8.27;5.53;;;6.10;59.20;;;;;;5011425;28;20214;-73
2021/01/28 10:37:41;;;;;;;8.63;5.27;;;5.90;59.50;;;;;;5015008;28;20294;-75
2021/01/28 10:40:08;;;;;;;10.53;5.80;;;5.90;59.90;;;;;;5014145;28;20678;-75
2021/01/28 10:42:39;;;;;;;8.33;5.50;;;5.80;60.00;;;;;;5013462;28;20640;-75
2021/01/28 10:45:10;;;;;;;11.63;5.80;;;5.90;60.80;;;;;;5013071;28;20656;-73
2021/01/28 10:47:37;;;;;;;8.87;5.43;;;5.90;60.70;;;;;;5003421;28;20319;-74
2021/01/28 10:50:05;;;;;;;10.93;5.33;;;5.90;60.00;;;;;;5008954;28;20222;-74
2021/01/28 10:52:31;;;;;;;9.30;5.70;;;5.70;60.00;;;;;;5002416;28;20299;-74
2021/01/28 10:54:57;;;;;;;11.70;6.30;;;5.50;60.40;;;;;;5014251;28;20203;-73
2021/01/28 10:57:24;;;;;;;8.40;5.77;;;5.30;60.80;;;;;;5011315;28;20254;-75
2021/01/28 10:59:50;;;;;;;7.53;5.20;;;5.10;61.80;;;;;;5006535;28;20314;-73
2021/01/28 11:02:18;;;;;;;8.57;5.17;;;4.90;62.30;;;;;;5007048;28;20691;-74
2021/01/28 11:04:45;;;;;;;13.60;5.93;;;4.80;63.10;;;;;;5008490;28;20222;-73
2021/01/28 11:07:11;;;;;;;11.47;6.23;;;4.70;64.00;;;;;;5011652;28;20790;-73
2021/01/28 11:09:38;;;;;;;13.20;6.27;;;4.60;64.70;;;;;;5008868;28;20207;-73
2021/01/28 11:12:05;;;;;;;12.03;5.80;;;4.50;65.20;;;;;;5014757;28;20200;-74
2021/01/28 11:14:32;;;;;;;11.50;6.03;;;4.50;65.60;;;;;;5013616;28;20226;-74
2021/01/28 11:16:59;;;;;;;10.90;5.50;;;4.40;66.10;;;;;;5010166;28;20227;-74
2021/01/28 11:19:26;;;;;;;12.40;5.73;;;4.30;66.80;;;;;;5007185;28;20271;-75
2021/01/28 11:21:53;;;;;;;14.93;6.67;;;4.30;67.20;;;;;;5004963;28;20628;-72
2021/01/28 11:24:19;;;;;;;13.37;6.10;;;4.20;67.50;;;;;;5011002;28;20538;-73
2021/01/28 11:26:46;;;;;;;10.87;6.17;;;4.10;68.00;;;;;;5005257;28;20759;-74
2021/01/28 11:29:13;;;;;;;13.53;6.73;;;4.10;68.20;;;;;;5005429;28;20211;-72
2021/01/28 11:31:40;;;;;;;10.97;6.00;;;4.10;68.80;;;;;;5001621;28;20298;-73
2021/01/28 11:34:07;;;;;;;10.00;6.20;;;4.00;69.40;;;;;;5003436;28;20203;-74
2021/01/28 11:36:34;;;;;;;13.50;6.80;;;4.10;70.00;;;;;;5006766;28;20250;-73
2021/01/28 11:39:00;;;;;;;15.80;6.57;;;4.00;69.90;;;;;;5016125;28;20714;-74
2021/01/28 11:41:27;;;;;;;13.90;7.13;;;4.10;70.10;;;;;;5010506;28;20278;-75
2021/01/28 11:43:54;;;;;;;11.77;6.60;;;4.20;71.10;;;;;;5013705;28;20214;-73
2021/01/28 11:46:20;;;;;;;11.60;7.10;;;4.40;71.60;;;;;;5004766;28;20642;-74
2021/01/28 11:48:47;;;;;;;12.03;7.57;;;4.60;70.60;;;;;;5009228;28;20242;-73
2021/01/28 11:51:13;;;;;;;13.23;6.70;;;4.70;70.50;;;;;;5011821;28;20199;-75
2021/01/28 11:53:43;;;;;;;14.63;7.10;;;4.70;70.50;;;;;;5012340;28;20207;-74
2021/01/28 11:56:09;;;;;;;12.87;6.60;;;4.60;70.20;;;;;;5010426;28;20199;-71
2021/01/28 11:58:36;;;;;;;9.13;6.03;;;4.50;70.10;;;;;;5003007;28;20258;-74
2021/01/28 12:01:02;;;;;;;13.53;7.13;;;4.40;70.30;;;;;;5007549;28;20587;-72
2021/01/28 12:03:28;;;;;;;16.03;7.63;;;4.20;71.10;;;;;;5004395;28;20238;-75
2021/01/28 12:05:55;;;;;;;13.73;7.43;;;4.10;72.00;;;;;;5015241;28;20265;-74
2021/01/28 12:08:22;;;;;;;12.40;7.40;;;4.10;73.50;;;;;;5014727;28;20222;-75
2021/01/28 12:10:50;;;;;;;12.90;7.47;;;4.10;74.00;;;;;;5009815;28;20297;-74
2021/01/28 12:13:16;;;;;;;12.20;7.67;;;4.20;74.60;;;;;;5006296;28;20207;-72
2021/01/28 12:15:42;;;;;;;12.40;8.13;;;4.20;74.70;;;;;;5010577;28;20236;-73
2021/01/28 12:18:09;;;;;;;12.93;7.50;;;4.20;75.00;;;;;;5009974;28;20245;-72
2021/01/28 12:20:36;;;;;;;13.40;7.77;;;4.10;75.40;;;;;;5010054;28;20206;-71
2021/01/28 12:23:04;;;;;;;17.80;8.60;;;4.10;76.60;;;;;;5006393;28;20318;-72
2021/01/28 12:25:31;;;;;;;15.20;7.63;;;4.30;77.70;;;;;;5013055;28;20215;-71
2021/01/28 12:27:58;;;;;;;13.37;8.27;;;4.40;77.10;;;;;;5011272;28;20219;-72
2021/01/28 12:30:26;;;;;;;15.57;8.73;;;4.50;76.90;;;;;;5013603;28;20242;-71
2021/01/28 12:32:53;;;;;;;12.27;7.87;;;4.40;77.20;;;;;;5012354;28;20711;-72
2021/01/28 12:35:20;;;;;;;13.20;8.27;;;4.30;78.00;;;;;;5013442;28;20704;-72
2021/01/28 12:37:47;;;;;;;15.40;8.13;;;4.20;78.70;;;;;;4996738;28;20235;-73
2021/01/28 12:40:16;;;;;;;14.03;8.13;;;4.10;79.80;;;;;;5006432;28;20215;-72
2021/01/28 12:42:42;;;;;;;16.77;8.40;;;3.90;81.10;;;;;;5011886;28;20231;-72
2021/01/28 12:45:11;;;;;;;14.97;8.30;;;3.80;82.50;;;;;;5007635;28;20208;-73
2021/01/28 12:47:37;;;;;;;13.67;8.20;;;3.70;84.20;;;;;;5002610;28;20634;-71
2021/01/28 12:50:06;;;;;;;13.97;8.33;;;3.50;85.70;;;;;;5009339;28;20271;-70
2021/01/28 12:52:33;;;;;;;18.70;8.93;;;3.50;87.50;;;;;;5013022;28;20648;-70
2021/01/28 12:54:59;;;;;;;17.53;8.80;;;3.30;89.90;;;;;;5010701;28;20290;-71
2021/01/28 12:57:25;;;;;;;17.30;8.43;;;3.30;91.10;;;;;;5012287;28;20235;-71
2021/01/28 12:59:52;;;;;;;12.90;8.20;;;3.20;92.40;;;;;;5006872;28;20298;-73
2021/01/28 13:02:20;;;;;;;16.03;8.73;;;3.20;93.60;;;;;;5008564;28;20251;-71
2021/01/28 13:04:46;;;;;;;19.63;8.80;;;3.20;94.90;;;;;;5013756;28;20276;-74
2021/01/28 13:07:12;;;;;;;15.53;8.57;;;3.10;96.20;;;;;;5013646;28;20231;-72